sensor_id;sensor_type;location;lat;lon;timestamp;P1;durP1;ratioP1;P2;durP2;ratioP2
16775;SDS011;8505;49.456;8.164;2023-08-30T00:01:15;6.13;;;4.03;;
16775;SDS011;8505;49.456;8.164;2023-08-30T00:03:43;6.82;;;4.10;;
16775;SDS011;8505;49.456;8.164;2023-08-30T00:06:11;5.63;;;4.22;;
16775;SDS011;8505;49.456;8.164;2023-08-30T00:08:39;6.30;;;4.20;;
16775;SDS011;8505;49.456;8.164;2023-08-30T00:11:06;6.93;;;4.72;;
16775;SDS011;8505;49.456;8.164;2023-08-30T00:13:34;9.07;;;4.60;;
16775;SDS011;8505;49.456;8.164;2023-08-30T00:16:03;7.82;;;4.65;;
16775;SDS011;8505;49.456;8.164;2023-08-30T00:18:31;7.00;;;5.10;;
16775;SDS011;8505;49.456;8.164;2023-08-30T00:20:59;7.50;;;5.20;;
16775;SDS011;8505;49.456;8.164;2023-08-30T00:23:27;7.68;;;5.18;;
16775;SDS011;8505;49.456;8.164;2023-08-30T00:25:54;8.13;;;5.35;;
16775;SDS011;8505;49.456;8.164;2023-08-30T00:28:22;7.13;;;5.00;;
16775;SDS011;8505;49.456;8.164;2023-08-30T00:30:52;7.27;;;5.10;;
16775;SDS011;8505;49.456;8.164;2023-08-30T00:33:22;6.80;;;5.30;;
16775;SDS011;8505;49.456;8.164;2023-08-30T00:35:55;8.52;;;5.45;;
16775;SDS011;8505;49.456;8.164;2023-08-30T00:38:23;7.70;;;5.38;;
16775;SDS011;8505;49.456;8.164;2023-08-30T00:40:51;7.15;;;5.78;;
16775;SDS011;8505;49.456;8.164;2023-08-30T00:43:19;7.28;;;5.80;;
16775;SDS011;8505;49.456;8.164;2023-08-30T00:45:47;7.57;;;6.20;;
16775;SDS011;8505;49.456;8.164;2023-08-30T00:48:16;9.03;;;5.83;;
16775;SDS011;8505;49.456;8.164;2023-08-30T00:50:48;8.70;;;6.05;;
16775;SDS011;8505;49.456;8.164;2023-08-30T00:53:16;7.53;;;5.70;;
16775;SDS011;8505;49.456;8.164;2023-08-30T00:55:44;9.65;;;5.90;;
16775;SDS011;8505;49.456;8.164;2023-08-30T00:58:12;7.13;;;5.80;;
16775;SDS011;8505;49.456;8.164;2023-08-30T01:00:40;8.10;;;5.97;;
16775;SDS011;8505;49.456;8.164;2023-08-30T01:03:08;7.95;;;5.80;;
16775;SDS011;8505;49.456;8.164;2023-08-30T01:05:36;8.70;;;6.30;;
16775;SDS011;8505;49.456;8.164;2023-08-30T01:08:06;8.38;;;6.32;;
16775;SDS011;8505;49.456;8.164;2023-08-30T01:10:40;7.27;;;6.10;;
16775;SDS011;8505;49.456;8.164;2023-08-30T01:13:20;8.33;;;6.20;;
16775;SDS011;8505;49.456;8.164;2023-08-30T01:15:48;8.77;;;6.13;;
16775;SDS011;8505;49.456;8.164;2023-08-30T01:18:18;9.63;;;6.80;;
16775;SDS011;8505;49.456;8.164;2023-08-30T01:20:47;9.50;;;7.00;;
16775;SDS011;8505;49.456;8.164;2023-08-30T01:23:24;9.02;;;7.00;;
16775;SDS011;8505;49.456;8.164;2023-08-30T01:26:02;9.07;;;7.32;;
16775;SDS011;8505;49.456;8.164;2023-08-30T01:28:37;10.18;;;7.63;;
16775;SDS011;8505;49.456;8.164;2023-08-30T01:31:06;11.15;;;7.75;;
16775;SDS011;8505;49.456;8.164;2023-08-30T01:33:36;10.82;;;8.07;;
16775;SDS011;8505;49.456;8.164;2023-08-30T01:36:05;11.98;;;8.32;;
16775;SDS011;8505;49.456;8.164;2023-08-30T01:38:33;13.02;;;8.63;;
16775;SDS011;8505;49.456;8.164;2023-08-30T01:41:02;13.25;;;9.05;;
16775;SDS011;8505;49.456;8.164;2023-08-30T01:43:31;11.93;;;8.43;;
16775;SDS011;8505;49.456;8.164;2023-08-30T01:46:01;11.38;;;8.82;;
16775;SDS011;8505;49.456;8.164;2023-08-30T01:48:30;13.82;;;9.18;;
16775;SDS011;8505;49.456;8.164;2023-08-30T01:51:01;11.77;;;8.82;;
16775;SDS011;8505;49.456;8.164;2023-08-30T01:53:31;14.23;;;9.43;;
16775;SDS011;8505;49.456;8.164;2023-08-30T01:55:59;13.25;;;9.30;;
16775;SDS011;8505;49.456;8.164;2023-08-30T01:58:27;12.13;;;8.98;;
16775;SDS011;8505;49.456;8.164;2023-08-30T02:00:55;12.85;;;9.38;;
16775;SDS011;8505;49.456;8.164;2023-08-30T02:03:25;11.87;;;8.90;;
16775;SDS011;8505;49.456;8.164;2023-08-30T02:05:57;11.98;;;8.88;;
16775;SDS011;8505;49.456;8.164;2023-08-30T02:08:32;10.95;;;8.60;;
16775;SDS011;8505;49.456;8.164;2023-08-30T02:11:07;11.57;;;8.33;;
16775;SDS011;8505;49.456;8.164;2023-08-30T02:13:40;12.73;;;9.02;;
16775;SDS011;8505;49.456;8.164;2023-08-30T02:16:10;10.20;;;8.27;;
16775;SDS011;8505;49.456;8.164;2023-08-30T02:18:41;11.23;;;8.65;;
16775;SDS011;8505;49.456;8.164;2023-08-30T02:21:10;11.85;;;8.15;;
16775;SDS011;8505;49.456;8.164;2023-08-30T02:23:38;11.98;;;8.25;;
16775;SDS011;8505;49.456;8.164;2023-08-30T02:26:06;13.60;;;8.40;;
16775;SDS011;8505;49.456;8.164;2023-08-30T02:28:34;11.85;;;8.80;;
16775;SDS011;8505;49.456;8.164;2023-08-30T02:31:01;11.20;;;8.50;;
16775;SDS011;8505;49.456;8.164;2023-08-30T02:33:29;10.88;;;8.75;;
16775;SDS011;8505;49.456;8.164;2023-08-30T02:35:58;12.15;;;8.77;;
16775;SDS011;8505;49.456;8.164;2023-08-30T02:38:26;11.50;;;8.55;;
16775;SDS011;8505;49.456;8.164;2023-08-30T02:40:53;10.95;;;8.50;;
16775;SDS011;8505;49.456;8.164;2023-08-30T02:43:21;10.95;;;8.20;;
16775;SDS011;8505;49.456;8.164;2023-08-30T02:45:51;13.18;;;9.00;;
16775;SDS011;8505;49.456;8.164;2023-08-30T02:48:19;11.95;;;8.65;;
16775;SDS011;8505;49.456;8.164;2023-08-30T02:50:47;12.38;;;8.75;;
16775;SDS011;8505;49.456;8.164;2023-08-30T02:53:16;12.10;;;8.88;;
16775;SDS011;8505;49.456;8.164;2023-08-30T02:55:44;12.27;;;8.90;;
16775;SDS011;8505;49.456;8.164;2023-08-30T02:58:13;12.00;;;8.70;;
16775;SDS011;8505;49.456;8.164;2023-08-30T03:00:41;11.20;;;8.43;;
16775;SDS011;8505;49.456;8.164;2023-08-30T03:03:09;12.38;;;9.00;;
16775;SDS011;8505;49.456;8.164;2023-08-30T03:05:37;12.85;;;9.02;;
16775;SDS011;8505;49.456;8.164;2023-08-30T03:08:04;12.88;;;9.27;;
16775;SDS011;8505;49.456;8.164;2023-08-30T03:10:34;12.57;;;9.23;;
16775;SDS011;8505;49.456;8.164;2023-08-30T03:13:02;11.55;;;9.10;;
16775;SDS011;8505;49.456;8.164;2023-08-30T03:15:58;11.90;;;9.35;;
16775;SDS011;8505;49.456;8.164;2023-08-30T03:18:26;13.52;;;9.75;;
16775;SDS011;8505;49.456;8.164;2023-08-30T03:20:59;13.57;;;10.00;;
16775;SDS011;8505;49.456;8.164;2023-08-30T03:23:28;16.70;;;9.57;;
16775;SDS011;8505;49.456;8.164;2023-08-30T03:25:57;14.60;;;9.80;;
16775;SDS011;8505;49.456;8.164;2023-08-30T03:28:25;14.02;;;10.00;;
16775;SDS011;8505;49.456;8.164;2023-08-30T03:30:53;13.57;;;10.02;;
16775;SDS011;8505;49.456;8.164;2023-08-30T03:33:21;14.05;;;10.45;;
16775;SDS011;8505;49.456;8.164;2023-08-30T03:35:49;13.80;;;10.23;;
16775;SDS011;8505;49.456;8.164;2023-08-30T03:38:16;14.43;;;10.57;;
16775;SDS011;8505;49.456;8.164;2023-08-30T03:40:44;13.98;;;10.48;;
16775;SDS011;8505;49.456;8.164;2023-08-30T03:43:13;15.55;;;10.77;;
16775;SDS011;8505;49.456;8.164;2023-08-30T03:45:41;15.48;;;10.88;;
16775;SDS011;8505;49.456;8.164;2023-08-30T03:48:09;14.07;;;10.70;;
16775;SDS011;8505;49.456;8.164;2023-08-30T03:50:37;15.98;;;10.80;;
16775;SDS011;8505;49.456;8.164;2023-08-30T03:53:05;14.52;;;11.02;;
16775;SDS011;8505;49.456;8.164;2023-08-30T03:55:33;15.80;;;10.77;;
16775;SDS011;8505;49.456;8.164;2023-08-30T03:58:01;14.63;;;10.77;;
16775;SDS011;8505;49.456;8.164;2023-08-30T04:00:31;13.60;;;10.60;;
16775;SDS011;8505;49.456;8.164;2023-08-30T04:02:58;15.88;;;10.50;;
16775;SDS011;8505;49.456;8.164;2023-08-30T04:05:26;14.47;;;10.23;;
16775;SDS011;8505;49.456;8.164;2023-08-30T04:07:54;12.65;;;9.48;;
16775;SDS011;8505;49.456;8.164;2023-08-30T04:10:22;12.52;;;9.68;;
16775;SDS011;8505;49.456;8.164;2023-08-30T04:12:50;13.40;;;9.83;;
16775;SDS011;8505;49.456;8.164;2023-08-30T04:15:17;12.50;;;9.98;;
16775;SDS011;8505;49.456;8.164;2023-08-30T04:17:47;13.00;;;9.90;;
16775;SDS011;8505;49.456;8.164;2023-08-30T04:20:15;13.07;;;10.25;;
16775;SDS011;8505;49.456;8.164;2023-08-30T04:22:43;13.32;;;10.23;;
16775;SDS011;8505;49.456;8.164;2023-08-30T04:25:10;13.88;;;10.38;;
16775;SDS011;8505;49.456;8.164;2023-08-30T04:27:38;12.85;;;9.55;;
16775;SDS011;8505;49.456;8.164;2023-08-30T04:30:06;12.35;;;9.90;;
16775;SDS011;8505;49.456;8.164;2023-08-30T04:32:35;13.95;;;10.25;;
16775;SDS011;8505;49.456;8.164;2023-08-30T04:35:04;14.20;;;10.73;;
16775;SDS011;8505;49.456;8.164;2023-08-30T04:37:36;13.68;;;9.95;;
16775;SDS011;8505;49.456;8.164;2023-08-30T04:40:06;13.02;;;10.07;;
16775;SDS011;8505;49.456;8.164;2023-08-30T04:42:35;15.35;;;10.93;;
16775;SDS011;8505;49.456;8.164;2023-08-30T04:45:04;15.70;;;11.05;;
16775;SDS011;8505;49.456;8.164;2023-08-30T04:47:33;16.75;;;10.90;;
16775;SDS011;8505;49.456;8.164;2023-08-30T04:50:01;15.35;;;10.57;;
16775;SDS011;8505;49.456;8.164;2023-08-30T04:52:30;14.98;;;10.63;;
16775;SDS011;8505;49.456;8.164;2023-08-30T04:54:58;13.93;;;9.87;;
16775;SDS011;8505;49.456;8.164;2023-08-30T04:57:26;14.30;;;10.77;;
16775;SDS011;8505;49.456;8.164;2023-08-30T04:59:54;14.27;;;10.70;;
16775;SDS011;8505;49.456;8.164;2023-08-30T05:02:22;13.27;;;10.10;;
16775;SDS011;8505;49.456;8.164;2023-08-30T05:04:50;14.30;;;10.45;;
16775;SDS011;8505;49.456;8.164;2023-08-30T05:07:19;15.27;;;11.07;;
16775;SDS011;8505;49.456;8.164;2023-08-30T05:09:48;14.52;;;10.48;;
16775;SDS011;8505;49.456;8.164;2023-08-30T05:12:16;14.35;;;11.40;;
16775;SDS011;8505;49.456;8.164;2023-08-30T05:14:43;16.60;;;11.83;;
16775;SDS011;8505;49.456;8.164;2023-08-30T05:17:11;15.77;;;11.77;;
16775;SDS011;8505;49.456;8.164;2023-08-30T05:19:39;16.70;;;12.27;;
16775;SDS011;8505;49.456;8.164;2023-08-30T05:22:06;16.90;;;12.32;;
16775;SDS011;8505;49.456;8.164;2023-08-30T05:24:34;18.42;;;13.27;;
16775;SDS011;8505;49.456;8.164;2023-08-30T05:27:04;18.70;;;12.35;;
16775;SDS011;8505;49.456;8.164;2023-08-30T05:29:32;19.08;;;13.02;;
16775;SDS011;8505;49.456;8.164;2023-08-30T05:31:59;19.45;;;12.30;;
16775;SDS011;8505;49.456;8.164;2023-08-30T05:34:27;17.83;;;12.33;;
16775;SDS011;8505;49.456;8.164;2023-08-30T05:36:55;16.30;;;12.50;;
16775;SDS011;8505;49.456;8.164;2023-08-30T05:39:22;17.13;;;11.52;;
16775;SDS011;8505;49.456;8.164;2023-08-30T05:41:50;16.92;;;12.27;;
16775;SDS011;8505;49.456;8.164;2023-08-30T05:44:19;14.90;;;11.10;;
16775;SDS011;8505;49.456;8.164;2023-08-30T05:46:47;14.70;;;10.68;;
16775;SDS011;8505;49.456;8.164;2023-08-30T05:49:15;15.03;;;11.00;;
16775;SDS011;8505;49.456;8.164;2023-08-30T05:51:43;14.70;;;10.88;;
16775;SDS011;8505;49.456;8.164;2023-08-30T05:54:10;14.20;;;10.80;;
16775;SDS011;8505;49.456;8.164;2023-08-30T05:56:38;14.57;;;10.68;;
16775;SDS011;8505;49.456;8.164;2023-08-30T05:59:06;17.20;;;11.52;;
16775;SDS011;8505;49.456;8.164;2023-08-30T06:01:35;18.35;;;11.57;;
16775;SDS011;8505;49.456;8.164;2023-08-30T06:04:03;17.80;;;12.00;;
16775;SDS011;8505;49.456;8.164;2023-08-30T06:06:31;15.98;;;12.15;;
16775;SDS011;8505;49.456;8.164;2023-08-30T06:08:59;17.15;;;11.27;;
16775;SDS011;8505;49.456;8.164;2023-08-30T06:11:27;17.40;;;12.07;;
16775;SDS011;8505;49.456;8.164;2023-08-30T06:13:55;17.13;;;11.90;;
16775;SDS011;8505;49.456;8.164;2023-08-30T06:16:25;15.65;;;11.32;;
16775;SDS011;8505;49.456;8.164;2023-08-30T06:18:54;15.20;;;10.98;;
16775;SDS011;8505;49.456;8.164;2023-08-30T06:21:21;14.00;;;10.70;;
16775;SDS011;8505;49.456;8.164;2023-08-30T06:23:49;17.55;;;11.13;;
16775;SDS011;8505;49.456;8.164;2023-08-30T06:26:17;15.00;;;11.05;;
16775;SDS011;8505;49.456;8.164;2023-08-30T06:28:45;14.88;;;10.68;;
16775;SDS011;8505;49.456;8.164;2023-08-30T06:31:29;14.77;;;10.10;;
16775;SDS011;8505;49.456;8.164;2023-08-30T06:34:00;15.23;;;10.27;;
16775;SDS011;8505;49.456;8.164;2023-08-30T06:36:27;13.15;;;9.75;;
16775;SDS011;8505;49.456;8.164;2023-08-30T06:38:55;15.75;;;10.45;;
16775;SDS011;8505;49.456;8.164;2023-08-30T06:41:23;13.35;;;9.48;;
16775;SDS011;8505;49.456;8.164;2023-08-30T06:43:51;15.00;;;10.60;;
16775;SDS011;8505;49.456;8.164;2023-08-30T06:46:18;13.40;;;9.65;;
16775;SDS011;8505;49.456;8.164;2023-08-30T06:48:46;15.43;;;9.80;;
16775;SDS011;8505;49.456;8.164;2023-08-30T06:51:16;13.63;;;9.47;;
16775;SDS011;8505;49.456;8.164;2023-08-30T06:53:43;12.07;;;9.30;;
16775;SDS011;8505;49.456;8.164;2023-08-30T06:56:12;12.35;;;9.32;;
16775;SDS011;8505;49.456;8.164;2023-08-30T06:58:40;14.07;;;9.63;;
16775;SDS011;8505;49.456;8.164;2023-08-30T07:01:08;11.37;;;8.57;;
16775;SDS011;8505;49.456;8.164;2023-08-30T07:03:36;11.52;;;8.63;;
16775;SDS011;8505;49.456;8.164;2023-08-30T07:06:03;11.05;;;8.10;;
16775;SDS011;8505;49.456;8.164;2023-08-30T07:08:32;11.20;;;8.23;;
16775;SDS011;8505;49.456;8.164;2023-08-30T07:11:00;10.88;;;7.50;;
16775;SDS011;8505;49.456;8.164;2023-08-30T07:13:28;12.32;;;7.50;;
16775;SDS011;8505;49.456;8.164;2023-08-30T07:15:56;9.40;;;7.22;;
16775;SDS011;8505;49.456;8.164;2023-08-30T07:18:24;9.33;;;7.33;;
16775;SDS011;8505;49.456;8.164;2023-08-30T07:20:52;10.80;;;6.97;;
16775;SDS011;8505;49.456;8.164;2023-08-30T07:23:19;9.23;;;6.80;;
16775;SDS011;8505;49.456;8.164;2023-08-30T07:25:48;8.82;;;6.90;;
16775;SDS011;8505;49.456;8.164;2023-08-30T07:28:18;10.05;;;6.68;;
16775;SDS011;8505;49.456;8.164;2023-08-30T07:30:46;9.15;;;6.10;;
16775;SDS011;8505;49.456;8.164;2023-08-30T07:33:14;8.00;;;5.82;;
16775;SDS011;8505;49.456;8.164;2023-08-30T07:35:42;8.10;;;5.93;;
16775;SDS011;8505;49.456;8.164;2023-08-30T07:38:10;9.27;;;5.90;;
16775;SDS011;8505;49.456;8.164;2023-08-30T07:40:37;8.45;;;5.70;;
16775;SDS011;8505;49.456;8.164;2023-08-30T07:43:06;7.93;;;5.32;;
16775;SDS011;8505;49.456;8.164;2023-08-30T07:45:35;9.05;;;5.35;;
16775;SDS011;8505;49.456;8.164;2023-08-30T07:48:03;8.07;;;5.80;;
16775;SDS011;8505;49.456;8.164;2023-08-30T07:50:31;8.60;;;5.55;;
16775;SDS011;8505;49.456;8.164;2023-08-30T07:52:59;7.43;;;5.73;;
16775;SDS011;8505;49.456;8.164;2023-08-30T07:55:27;8.85;;;5.15;;
16775;SDS011;8505;49.456;8.164;2023-08-30T07:57:54;7.43;;;4.93;;
16775;SDS011;8505;49.456;8.164;2023-08-30T08:00:23;6.75;;;4.85;;
16775;SDS011;8505;49.456;8.164;2023-08-30T08:02:51;6.20;;;4.45;;
16775;SDS011;8505;49.456;8.164;2023-08-30T08:05:20;7.00;;;4.60;;
16775;SDS011;8505;49.456;8.164;2023-08-30T08:07:49;7.47;;;4.55;;
16775;SDS011;8505;49.456;8.164;2023-08-30T08:10:19;5.63;;;4.47;;
16775;SDS011;8505;49.456;8.164;2023-08-30T08:12:47;7.93;;;4.38;;
16775;SDS011;8505;49.456;8.164;2023-08-30T08:15:14;5.97;;;4.35;;
16775;SDS011;8505;49.456;8.164;2023-08-30T08:17:43;6.93;;;4.60;;
16775;SDS011;8505;49.456;8.164;2023-08-30T08:20:11;6.00;;;4.28;;
16775;SDS011;8505;49.456;8.164;2023-08-30T08:22:40;6.15;;;4.30;;
16775;SDS011;8505;49.456;8.164;2023-08-30T08:25:08;8.68;;;4.50;;
16775;SDS011;8505;49.456;8.164;2023-08-30T08:27:36;5.88;;;4.32;;
16775;SDS011;8505;49.456;8.164;2023-08-30T08:30:05;6.20;;;4.65;;
16775;SDS011;8505;49.456;8.164;2023-08-30T08:32:33;5.60;;;4.50;;
16775;SDS011;8505;49.456;8.164;2023-08-30T08:35:03;6.35;;;4.32;;
16775;SDS011;8505;49.456;8.164;2023-08-30T08:37:32;4.80;;;4.13;;
16775;SDS011;8505;49.456;8.164;2023-08-30T08:40:00;7.75;;;4.65;;
16775;SDS011;8505;49.456;8.164;2023-08-30T08:42:35;6.75;;;4.40;;
16775;SDS011;8505;49.456;8.164;2023-08-30T08:45:03;8.40;;;4.30;;
16775;SDS011;8505;49.456;8.164;2023-08-30T08:47:31;7.73;;;4.47;;
16775;SDS011;8505;49.456;8.164;2023-08-30T08:49:59;6.70;;;4.10;;
16775;SDS011;8505;49.456;8.164;2023-08-30T08:52:31;5.30;;;3.97;;
16775;SDS011;8505;49.456;8.164;2023-08-30T08:55:16;5.75;;;4.45;;
16775;SDS011;8505;49.456;8.164;2023-08-30T08:57:44;5.43;;;4.00;;
16775;SDS011;8505;49.456;8.164;2023-08-30T09:00:15;7.40;;;4.03;;
16775;SDS011;8505;49.456;8.164;2023-08-30T09:02:43;6.15;;;3.85;;
16775;SDS011;8505;49.456;8.164;2023-08-30T09:05:12;6.23;;;3.77;;
16775;SDS011;8505;49.456;8.164;2023-08-30T09:07:42;6.35;;;3.53;;
16775;SDS011;8505;49.456;8.164;2023-08-30T09:10:10;6.63;;;4.30;;
16775;SDS011;8505;49.456;8.164;2023-08-30T09:12:38;6.85;;;3.90;;
16775;SDS011;8505;49.456;8.164;2023-08-30T09:15:06;6.37;;;3.87;;
16775;SDS011;8505;49.456;8.164;2023-08-30T09:17:35;5.53;;;3.73;;
16775;SDS011;8505;49.456;8.164;2023-08-30T09:20:07;4.70;;;3.40;;
16775;SDS011;8505;49.456;8.164;2023-08-30T09:22:36;4.00;;;3.03;;
16775;SDS011;8505;49.456;8.164;2023-08-30T09:25:06;4.50;;;3.20;;
16775;SDS011;8505;49.456;8.164;2023-08-30T09:27:36;4.53;;;3.13;;
16775;SDS011;8505;49.456;8.164;2023-08-30T09:30:05;5.32;;;3.25;;
16775;SDS011;8505;49.456;8.164;2023-08-30T09:32:40;4.07;;;3.22;;
16775;SDS011;8505;49.456;8.164;2023-08-30T09:35:09;4.00;;;3.00;;
16775;SDS011;8505;49.456;8.164;2023-08-30T09:37:37;4.05;;;2.88;;
16775;SDS011;8505;49.456;8.164;2023-08-30T09:40:07;4.85;;;3.00;;
16775;SDS011;8505;49.456;8.164;2023-08-30T09:42:39;5.10;;;3.15;;
16775;SDS011;8505;49.456;8.164;2023-08-30T09:45:17;5.20;;;3.45;;
16775;SDS011;8505;49.456;8.164;2023-08-30T09:47:46;4.75;;;3.10;;
16775;SDS011;8505;49.456;8.164;2023-08-30T09:50:15;5.38;;;3.25;;
16775;SDS011;8505;49.456;8.164;2023-08-30T09:52:45;4.65;;;3.20;;
16775;SDS011;8505;49.456;8.164;2023-08-30T09:55:18;4.25;;;2.70;;
16775;SDS011;8505;49.456;8.164;2023-08-30T09:57:45;4.17;;;2.90;;
16775;SDS011;8505;49.456;8.164;2023-08-30T10:00:16;4.18;;;2.78;;
16775;SDS011;8505;49.456;8.164;2023-08-30T10:02:44;5.25;;;3.00;;
16775;SDS011;8505;49.456;8.164;2023-08-30T10:05:32;4.45;;;3.13;;
16775;SDS011;8505;49.456;8.164;2023-08-30T10:08:02;5.35;;;3.20;;
16775;SDS011;8505;49.456;8.164;2023-08-30T10:10:35;5.18;;;3.40;;
16775;SDS011;8505;49.456;8.164;2023-08-30T10:13:05;4.63;;;3.35;;
16775;SDS011;8505;49.456;8.164;2023-08-30T10:15:36;4.90;;;3.40;;
16775;SDS011;8505;49.456;8.164;2023-08-30T10:18:11;4.50;;;3.28;;
16775;SDS011;8505;49.456;8.164;2023-08-30T10:20:42;5.65;;;3.40;;
16775;SDS011;8505;49.456;8.164;2023-08-30T10:23:11;4.30;;;3.00;;
16775;SDS011;8505;49.456;8.164;2023-08-30T10:25:41;4.55;;;2.88;;
16775;SDS011;8505;49.456;8.164;2023-08-30T10:28:12;4.28;;;2.38;;
16775;SDS011;8505;49.456;8.164;2023-08-30T10:30:40;3.73;;;2.30;;
16775;SDS011;8505;49.456;8.164;2023-08-30T10:33:11;3.35;;;2.00;;
16775;SDS011;8505;49.456;8.164;2023-08-30T10:35:46;3.10;;;1.75;;
16775;SDS011;8505;49.456;8.164;2023-08-30T10:38:23;3.97;;;2.08;;
16775;SDS011;8505;49.456;8.164;2023-08-30T10:40:54;2.08;;;1.85;;
16775;SDS011;8505;49.456;8.164;2023-08-30T10:43:29;2.97;;;1.90;;
16775;SDS011;8505;49.456;8.164;2023-08-30T10:45:59;3.10;;;1.60;;
16775;SDS011;8505;49.456;8.164;2023-08-30T10:48:34;4.40;;;2.00;;
16775;SDS011;8505;49.456;8.164;2023-08-30T10:51:03;3.17;;;1.70;;
16775;SDS011;8505;49.456;8.164;2023-08-30T10:53:33;5.78;;;1.90;;
16775;SDS011;8505;49.456;8.164;2023-08-30T10:56:10;2.42;;;1.63;;
16775;SDS011;8505;49.456;8.164;2023-08-30T10:58:41;3.00;;;1.48;;
16775;SDS011;8505;49.456;8.164;2023-08-30T11:01:10;2.20;;;1.40;;
16775;SDS011;8505;49.456;8.164;2023-08-30T11:03:40;3.92;;;1.50;;
16775;SDS011;8505;49.456;8.164;2023-08-30T11:06:13;2.83;;;1.40;;
16775;SDS011;8505;49.456;8.164;2023-08-30T11:08:41;1.63;;;1.50;;
16775;SDS011;8505;49.456;8.164;2023-08-30T11:11:10;2.65;;;1.55;;
16775;SDS011;8505;49.456;8.164;2023-08-30T11:13:41;2.65;;;1.60;;
16775;SDS011;8505;49.456;8.164;2023-08-30T11:16:08;2.50;;;1.30;;
16775;SDS011;8505;49.456;8.164;2023-08-30T11:18:38;2.40;;;1.40;;
16775;SDS011;8505;49.456;8.164;2023-08-30T11:21:07;2.40;;;1.40;;
16775;SDS011;8505;49.456;8.164;2023-08-30T11:23:36;2.42;;;1.58;;
16775;SDS011;8505;49.456;8.164;2023-08-30T11:26:04;2.47;;;1.40;;
16775;SDS011;8505;49.456;8.164;2023-08-30T11:28:33;2.30;;;1.40;;
16775;SDS011;8505;49.456;8.164;2023-08-30T11:31:01;2.63;;;1.50;;
16775;SDS011;8505;49.456;8.164;2023-08-30T11:33:29;3.03;;;1.50;;
16775;SDS011;8505;49.456;8.164;2023-08-30T11:35:56;2.17;;;1.60;;
16775;SDS011;8505;49.456;8.164;2023-08-30T11:38:26;2.33;;;1.58;;
16775;SDS011;8505;49.456;8.164;2023-08-30T11:40:54;2.88;;;1.63;;
16775;SDS011;8505;49.456;8.164;2023-08-30T11:43:22;2.70;;;1.60;;
16775;SDS011;8505;49.456;8.164;2023-08-30T11:45:56;2.65;;;1.52;;
16775;SDS011;8505;49.456;8.164;2023-08-30T11:48:25;4.40;;;1.60;;
16775;SDS011;8505;49.456;8.164;2023-08-30T11:50:53;3.22;;;1.52;;
16775;SDS011;8505;49.456;8.164;2023-08-30T11:53:21;3.20;;;1.80;;
16775;SDS011;8505;49.456;8.164;2023-08-30T11:55:49;2.10;;;1.60;;
16775;SDS011;8505;49.456;8.164;2023-08-30T11:58:17;2.35;;;1.40;;
16775;SDS011;8505;49.456;8.164;2023-08-30T12:00:45;2.40;;;1.50;;
16775;SDS011;8505;49.456;8.164;2023-08-30T12:03:18;2.90;;;1.40;;
16775;SDS011;8505;49.456;8.164;2023-08-30T12:05:46;4.45;;;1.67;;
16775;SDS011;8505;49.456;8.164;2023-08-30T12:08:18;1.73;;;1.30;;
16775;SDS011;8505;49.456;8.164;2023-08-30T12:10:47;2.47;;;1.55;;
16775;SDS011;8505;49.456;8.164;2023-08-30T12:13:21;2.05;;;1.30;;
16775;SDS011;8505;49.456;8.164;2023-08-30T12:15:50;3.05;;;1.38;;
16775;SDS011;8505;49.456;8.164;2023-08-30T12:18:21;2.63;;;1.55;;
16775;SDS011;8505;49.456;8.164;2023-08-30T12:20:54;4.40;;;1.75;;
16775;SDS011;8505;49.456;8.164;2023-08-30T12:23:22;3.85;;;1.60;;
16775;SDS011;8505;49.456;8.164;2023-08-30T12:25:57;3.05;;;1.52;;
16775;SDS011;8505;49.456;8.164;2023-08-30T12:28:25;2.58;;;1.40;;
16775;SDS011;8505;49.456;8.164;2023-08-30T12:30:53;3.28;;;1.70;;
16775;SDS011;8505;49.456;8.164;2023-08-30T12:33:22;3.33;;;1.70;;
16775;SDS011;8505;49.456;8.164;2023-08-30T12:35:51;3.28;;;1.80;;
16775;SDS011;8505;49.456;8.164;2023-08-30T12:38:19;3.17;;;1.75;;
16775;SDS011;8505;49.456;8.164;2023-08-30T12:40:48;4.10;;;1.80;;
16775;SDS011;8505;49.456;8.164;2023-08-30T12:43:16;3.80;;;1.80;;
16775;SDS011;8505;49.456;8.164;2023-08-30T12:45:45;3.13;;;1.70;;
16775;SDS011;8505;49.456;8.164;2023-08-30T12:48:14;2.80;;;1.88;;
16775;SDS011;8505;49.456;8.164;2023-08-30T12:50:44;3.67;;;1.70;;
16775;SDS011;8505;49.456;8.164;2023-08-30T12:53:13;3.40;;;1.77;;
16775;SDS011;8505;49.456;8.164;2023-08-30T12:55:45;2.65;;;1.85;;
16775;SDS011;8505;49.456;8.164;2023-08-30T12:58:12;3.05;;;1.80;;
16775;SDS011;8505;49.456;8.164;2023-08-30T13:00:40;3.72;;;1.67;;
16775;SDS011;8505;49.456;8.164;2023-08-30T13:03:08;4.68;;;2.00;;
16775;SDS011;8505;49.456;8.164;2023-08-30T13:05:37;3.85;;;1.90;;
16775;SDS011;8505;49.456;8.164;2023-08-30T13:08:06;5.63;;;1.80;;
16775;SDS011;8505;49.456;8.164;2023-08-30T13:10:34;3.20;;;1.70;;
16775;SDS011;8505;49.456;8.164;2023-08-30T13:13:02;3.63;;;1.90;;
16775;SDS011;8505;49.456;8.164;2023-08-30T13:15:30;3.05;;;1.95;;
16775;SDS011;8505;49.456;8.164;2023-08-30T13:17:58;2.55;;;1.60;;
16775;SDS011;8505;49.456;8.164;2023-08-30T13:20:26;4.47;;;2.13;;
16775;SDS011;8505;49.456;8.164;2023-08-30T13:22:54;5.88;;;2.00;;
16775;SDS011;8505;49.456;8.164;2023-08-30T13:25:23;3.43;;;1.70;;
16775;SDS011;8505;49.456;8.164;2023-08-30T13:27:51;3.95;;;2.13;;
16775;SDS011;8505;49.456;8.164;2023-08-30T13:30:19;3.28;;;1.88;;
16775;SDS011;8505;49.456;8.164;2023-08-30T13:32:47;2.78;;;1.98;;
16775;SDS011;8505;49.456;8.164;2023-08-30T13:35:15;4.43;;;1.83;;
16775;SDS011;8505;49.456;8.164;2023-08-30T13:37:43;3.78;;;1.90;;
16775;SDS011;8505;49.456;8.164;2023-08-30T13:40:11;3.30;;;1.80;;
16775;SDS011;8505;49.456;8.164;2023-08-30T13:42:40;4.05;;;2.20;;
16775;SDS011;8505;49.456;8.164;2023-08-30T13:45:08;4.43;;;2.08;;
16775;SDS011;8505;49.456;8.164;2023-08-30T13:47:38;3.50;;;1.83;;
16775;SDS011;8505;49.456;8.164;2023-08-30T13:50:06;3.92;;;1.95;;
16775;SDS011;8505;49.456;8.164;2023-08-30T13:52:34;2.97;;;2.15;;
16775;SDS011;8505;49.456;8.164;2023-08-30T13:55:03;3.60;;;1.88;;
16775;SDS011;8505;49.456;8.164;2023-08-30T13:57:31;4.28;;;2.00;;
16775;SDS011;8505;49.456;8.164;2023-08-30T14:00:01;3.80;;;2.00;;
16775;SDS011;8505;49.456;8.164;2023-08-30T14:02:34;4.25;;;2.15;;
16775;SDS011;8505;49.456;8.164;2023-08-30T14:05:02;4.40;;;1.77;;
16775;SDS011;8505;49.456;8.164;2023-08-30T14:07:30;3.97;;;1.90;;
16775;SDS011;8505;49.456;8.164;2023-08-30T14:09:58;5.25;;;2.00;;
16775;SDS011;8505;49.456;8.164;2023-08-30T14:12:26;2.92;;;1.88;;
16775;SDS011;8505;49.456;8.164;2023-08-30T14:14:54;3.55;;;1.77;;
16775;SDS011;8505;49.456;8.164;2023-08-30T14:17:23;4.25;;;1.85;;
16775;SDS011;8505;49.456;8.164;2023-08-30T14:19:51;4.18;;;2.00;;
16775;SDS011;8505;49.456;8.164;2023-08-30T14:22:18;3.45;;;2.10;;
16775;SDS011;8505;49.456;8.164;2023-08-30T14:24:46;4.45;;;2.08;;
16775;SDS011;8505;49.456;8.164;2023-08-30T14:27:34;5.32;;;2.17;;
16775;SDS011;8505;49.456;8.164;2023-08-30T14:30:02;6.22;;;2.30;;
16775;SDS011;8505;49.456;8.164;2023-08-30T14:32:32;4.88;;;2.03;;
16775;SDS011;8505;49.456;8.164;2023-08-30T14:35:00;4.20;;;2.00;;
16775;SDS011;8505;49.456;8.164;2023-08-30T14:37:27;4.35;;;2.17;;
16775;SDS011;8505;49.456;8.164;2023-08-30T14:39:55;4.63;;;2.40;;
16775;SDS011;8505;49.456;8.164;2023-08-30T14:42:23;3.78;;;2.20;;
16775;SDS011;8505;49.456;8.164;2023-08-30T14:44:50;4.32;;;1.88;;
16775;SDS011;8505;49.456;8.164;2023-08-30T14:47:19;3.97;;;2.20;;
16775;SDS011;8505;49.456;8.164;2023-08-30T14:49:48;4.93;;;2.30;;
16775;SDS011;8505;49.456;8.164;2023-08-30T14:52:16;3.88;;;2.20;;
16775;SDS011;8505;49.456;8.164;2023-08-30T14:54:44;3.67;;;2.10;;
16775;SDS011;8505;49.456;8.164;2023-08-30T14:57:12;5.68;;;2.20;;
16775;SDS011;8505;49.456;8.164;2023-08-30T14:59:40;4.80;;;2.30;;
16775;SDS011;8505;49.456;8.164;2023-08-30T15:02:08;6.18;;;2.30;;
16775;SDS011;8505;49.456;8.164;2023-08-30T15:04:36;4.03;;;2.20;;